KGCC/GCC METAR and TAF weather

Enter ICAO airport designator
Station Type Date Time Source
KGCC METAR 2022/01/25 05:53 UTC NOAA

KGCC 250553Z AUTO 31012KT 10SM SCT013 BKN021 BKN034 M02/M03 A3001 RMK AO2 SNB00E30 SLP186 P0001 60001 T10171033 10006 21017 53007


Station Type Date Time Source
KGCC Decoded METAR 2022/01/25 05:53 UTC NOAA

GILLETTE-CAMPBELL CTY AIRPORT , WY, United States (KGCC) 44-20N 105-33W 1320M
Jan 25, 2022 - 12:53 AM EST / 2022.01.25 0553 UTC
Wind: from the NW (310 degrees) at 14 MPH (12 KT):0
Visibility: 10 mile(s):0
Sky conditions: mostly cloudy
Precipitation last hour: 0.01 inches
Temperature: 28.9 F (-1.7 C)
Windchill: 17 F (-8 C):1
Dew Point: 26.1 F (-3.3 C)
Relative Humidity: 88%
Pressure (altimeter): 30.01 in. Hg (1016 hPa)
Pressure tendency: 0.02 inches (0.7 hPa) higher than three hours ago
ob: KGCC 250553Z AUTO 31012KT 10SM SCT013 BKN021 BKN034 M02/M03 A3001 RMK AO2 SNB00E30 SLP186 P0001 60001 T10171033 10006 21017 53007
cycle: 6

Station Type Date Time Source
KGCC TAF 2022/01/25 06:22 UTC NOAA

TAF KGCC 250520Z 2506/2606 34011KT 3SM -SN OVC015
FM251200 33010KT 5SM BR OVC012
FM252200 28010KT P6SM BKN060

Example: see airport list